createdAt,value
2022-09-22T00:01:26.336Z,102086.88
2022-09-22T00:04:03.878Z,102085.53
2022-09-22T00:06:34.572Z,102078.22
2022-09-22T00:09:02.276Z,102077.41
2022-09-22T00:11:36.201Z,102067.53
2022-09-22T00:14:20.793Z,102055.06
2022-09-22T00:16:54.187Z,102062.34
2022-09-22T00:19:27.573Z,102065.25
2022-09-22T00:21:54.860Z,102062.81
2022-09-22T00:24:24.006Z,102057.81
2022-09-22T00:26:52.581Z,102068.78
2022-09-22T00:29:20.182Z,102069.47
2022-09-22T00:31:47.788Z,102067.22
2022-09-22T00:34:18.487Z,102069.19
2022-09-22T00:36:45.965Z,102066.25
2022-09-22T00:39:13.973Z,102056.19
2022-09-22T00:41:44.974Z,102058.13
2022-09-22T00:44:27.031Z,102057.81
2022-09-22T00:47:02.814Z,102056.88
2022-09-22T00:49:56.535Z,102046.50
2022-09-22T00:52:29.228Z,102056.72
2022-09-22T00:55:00.746Z,102047.94
2022-09-22T00:57:31.911Z,102050.63
2022-09-22T01:00:04.299Z,102045.50
2022-09-22T01:02:32.017Z,102041.16
2022-09-22T01:04:58.719Z,102045.97
2022-09-22T01:07:29.128Z,102046.16
2022-09-22T01:09:56.562Z,102046.63
2022-09-22T01:12:26.708Z,102046.22
2022-09-22T01:15:18.826Z,102042.72
2022-09-22T01:18:21.269Z,102041.78
2022-09-22T01:21:02.314Z,102039.91
2022-09-22T01:24:04.188Z,102042.56
2022-09-22T01:26:56.278Z,102028.41
2022-09-22T01:29:36.137Z,102045.00
2022-09-22T01:32:12.941Z,102029.56
2022-09-22T01:34:45.640Z,102038.63
2022-09-22T01:37:23.460Z,102035.88
2022-09-22T01:40:16.344Z,102033.09
2022-09-22T01:42:51.592Z,102021.31
2022-09-22T01:45:23.105Z,102017.28
2022-09-22T01:48:02.761Z,102015.69
2022-09-22T01:50:36.456Z,102016.44
2022-09-22T01:53:28.555Z,102015.78
2022-09-22T01:56:00.630Z,102024.88
2022-09-22T01:58:35.104Z,102018.84
2022-09-22T02:01:14.281Z,102017.91
2022-09-22T02:03:54.018Z,102018.75
2022-09-22T02:06:26.769Z,102020.50
2022-09-22T02:09:02.292Z,102015.41
2022-09-22T02:11:29.179Z,102009.41
2022-09-22T02:13:56.128Z,102013.09
2022-09-22T02:16:25.057Z,102016.31
2022-09-22T02:18:56.127Z,102016.66
2022-09-22T02:21:25.226Z,102012.19
2022-09-22T02:23:51.891Z,102017.63
2022-09-22T02:26:23.873Z,102016.91
2022-09-22T02:29:11.579Z,102017.91
2022-09-22T02:31:39.954Z,102010.81
2022-09-22T02:34:08.823Z,102015.06
2022-09-22T02:36:41.572Z,102010.56
2022-09-22T02:39:40.006Z,102005.16
2022-09-22T02:42:09.688Z,102008.72
2022-09-22T02:44:45.477Z,102020.56
2022-09-22T02:47:17.507Z,102015.97
2022-09-22T02:49:45.550Z,102016.59
2022-09-22T02:52:14.070Z,102022.53
2022-09-22T02:54:40.935Z,102017.81
2022-09-22T02:57:10.149Z,102016.78
2022-09-22T02:59:36.904Z,102019.94
2022-09-22T03:02:03.874Z,102015.31
2022-09-22T03:04:31.192Z,102021.59
2022-09-22T03:06:57.928Z,102018.72
2022-09-22T03:09:24.708Z,102015.78
2022-09-22T03:11:51.385Z,102013.97
2022-09-22T03:14:18.190Z,102009.31
2022-09-22T03:16:44.854Z,102006.69
2022-09-22T03:19:11.988Z,102016.66
2022-09-22T03:21:38.621Z,102016.03
2022-09-22T03:24:06.102Z,102021.94
2022-09-22T03:26:33.304Z,102019.44
2022-09-22T03:29:00.267Z,102007.94
2022-09-22T03:31:27.114Z,102011.22
2022-09-22T03:33:53.806Z,102005.72
2022-09-22T03:36:20.875Z,102012.91
2022-09-22T03:38:47.707Z,102006.50
2022-09-22T03:41:14.700Z,102008.38
2022-09-22T03:43:41.822Z,102012.03
2022-09-22T03:46:08.618Z,102017.47
2022-09-22T03:48:35.368Z,102010.03
2022-09-22T03:51:02.294Z,102010.75
2022-09-22T03:53:29.124Z,102006.16
2022-09-22T03:56:05.800Z,102009.22
2022-09-22T03:58:32.598Z,102008.31
2022-09-22T04:00:59.370Z,102004.44
2022-09-22T04:03:26.126Z,102010.63
2022-09-22T04:05:53.404Z,102012.31
2022-09-22T04:08:20.514Z,102013.91
2022-09-22T04:10:47.187Z,102004.78
2022-09-22T04:13:14.803Z,102010.72
2022-09-22T04:15:41.643Z,102024.59
2022-09-22T04:18:08.653Z,102008.63
2022-09-22T04:20:36.451Z,102012.19
2022-09-22T04:23:03.310Z,102017.00
2022-09-22T04:25:32.052Z,102016.41
2022-09-22T04:28:02.247Z,102008.50
2022-09-22T04:30:32.266Z,102003.03
2022-09-22T04:32:59.968Z,102007.56
2022-09-22T04:35:30.223Z,102010.19
2022-09-22T04:37:58.037Z,102011.00
2022-09-22T04:40:25.365Z,102016.38
2022-09-22T04:42:52.505Z,102004.78
2022-09-22T04:45:19.261Z,102010.19
2022-09-22T04:47:51.556Z,102004.91
2022-09-22T04:50:20.386Z,102008.75
2022-09-22T04:52:50.090Z,102005.25
2022-09-22T04:55:18.065Z,102009.28
2022-09-22T04:57:54.544Z,102007.47
2022-09-22T05:00:23.209Z,102004.69
2022-09-22T05:02:50.426Z,102010.19
2022-09-22T05:05:17.647Z,102009.16
2022-09-22T05:07:46.309Z,102006.56
2022-09-22T05:10:14.196Z,102006.56
2022-09-22T05:12:41.752Z,102010.00
2022-09-22T05:15:36.061Z,102013.34
2022-09-22T05:18:03.031Z,102010.38
2022-09-22T05:20:29.821Z,102002.53
2022-09-22T05:22:56.536Z,102002.25
2022-09-22T05:25:23.619Z,102004.69
2022-09-22T05:27:54.585Z,101998.38
2022-09-22T05:30:24.037Z,101987.13
2022-09-22T05:32:50.970Z,101996.38
2022-09-22T05:35:21.501Z,101999.44
2022-09-22T05:37:50.786Z,101998.63
2022-09-22T05:40:19.238Z,102002.38
2022-09-22T05:42:48.488Z,102002.38
2022-09-22T05:45:16.448Z,102004.03
2022-09-22T05:47:43.936Z,101997.41
2022-09-22T05:50:12.835Z,101998.50
2022-09-22T05:52:39.870Z,101997.16
2022-09-22T05:55:07.493Z,101998.56
2022-09-22T05:57:34.589Z,101996.91
2022-09-22T06:00:02.133Z,101997.38
2022-09-22T06:02:28.901Z,102001.41
2022-09-22T06:04:55.653Z,101983.31
2022-09-22T06:07:24.098Z,101961.53
2022-09-22T06:09:51.773Z,101922.69
2022-09-22T06:12:18.920Z,101922.41
2022-09-22T06:14:45.682Z,101937.91
2022-09-22T06:17:12.827Z,101961.69
2022-09-22T06:19:40.264Z,101997.41
2022-09-22T06:22:08.158Z,102027.34
2022-09-22T06:24:34.928Z,102095.84
2022-09-22T06:27:01.615Z,102142.28
2022-09-22T06:29:28.802Z,102176.63
2022-09-22T06:31:56.760Z,102220.59
2022-09-22T06:34:23.957Z,102241.56
2022-09-22T06:36:50.646Z,102277.91
2022-09-22T06:39:17.358Z,102285.69
2022-09-22T06:41:44.893Z,102299.31
2022-09-22T06:44:12.703Z,102302.78
2022-09-22T06:46:39.492Z,102301.41
2022-09-22T06:49:06.261Z,102306.56
2022-09-22T06:51:35.660Z,102300.75
2022-09-22T06:54:05.080Z,102295.31
2022-09-22T06:56:42.872Z,102288.09
2022-09-22T06:59:12.893Z,102291.13
2022-09-22T07:01:42.239Z,102281.56
2022-09-22T07:04:10.615Z,102270.03
2022-09-22T07:06:39.684Z,102269.25
2022-09-22T07:09:09.215Z,102260.72
2022-09-22T07:11:39.768Z,102253.09
2022-09-22T07:14:07.375Z,102253.75
2022-09-22T07:16:36.281Z,102244.97
2022-09-22T07:19:05.229Z,102243.66
2022-09-22T07:21:38.093Z,102245.59
2022-09-22T07:24:05.554Z,102247.34
2022-09-22T07:26:35.186Z,102243.47
2022-09-22T07:29:06.152Z,102235.91
2022-09-22T07:31:34.818Z,102236.44
2022-09-22T07:34:02.046Z,102230.88
2022-09-22T07:36:31.441Z,102237.72
2022-09-22T07:39:03.372Z,102236.84
2022-09-22T07:41:32.015Z,102234.53
2022-09-22T07:44:19.288Z,102243.75
2022-09-22T07:46:46.393Z,102246.19
2022-09-22T07:49:15.306Z,102262.69
2022-09-22T07:51:43.022Z,102255.00
2022-09-22T07:54:10.229Z,102263.63
2022-09-22T07:56:40.269Z,102270.16
2022-09-22T07:59:11.142Z,102274.06
2022-09-22T08:01:42.176Z,102292.66
2022-09-22T08:04:15.632Z,102292.34
2022-09-22T08:06:47.154Z,102322.47
2022-09-22T08:09:14.289Z,102319.72
2022-09-22T08:11:45.983Z,102318.28
2022-09-22T08:14:13.057Z,102324.09
2022-09-22T08:16:41.021Z,102328.91
2022-09-22T08:19:12.752Z,102326.31
2022-09-22T08:21:49.483Z,102329.56
2022-09-22T08:24:22.722Z,102337.00
2022-09-22T08:26:52.645Z,102346.41
2022-09-22T08:29:20.626Z,102356.34
2022-09-22T08:31:49.624Z,102364.50
2022-09-22T08:34:17.700Z,102374.44
2022-09-22T08:36:46.385Z,102378.22
2022-09-22T08:39:13.435Z,102384.25
2022-09-22T08:42:09.251Z,102389.41
2022-09-22T08:44:49.314Z,102394.13
2022-09-22T08:47:44.613Z,102401.91
2022-09-22T08:50:46.660Z,102406.41
2022-09-22T08:53:18.616Z,102400.53
2022-09-22T08:55:55.643Z,102411.47
2022-09-22T08:58:36.763Z,102413.41
2022-09-22T09:01:49.815Z,102417.38
2022-09-22T09:04:54.807Z,102421.88
2022-09-22T09:07:37.345Z,102410.38
2022-09-22T09:10:18.843Z,102400.75
2022-09-22T09:13:07.325Z,102403.25
2022-09-22T09:15:57.452Z,102408.25
2022-09-22T09:18:32.721Z,102426.63
2022-09-22T09:21:04.604Z,102415.66
2022-09-22T09:26:35.822Z,102391.59
2022-09-22T09:29:06.928Z,102388.59
2022-09-22T09:31:42.671Z,102360.16
2022-09-22T09:34:18.035Z,102380.78
2022-09-22T09:36:52.751Z,102373.94
2022-09-22T09:39:36.609Z,102362.38
2022-09-22T09:42:22.943Z,102360.66
2022-09-22T09:44:54.292Z,102361.97
2022-09-22T09:47:59.014Z,102357.22
2022-09-22T09:50:32.469Z,102324.19
2022-09-22T09:53:00.079Z,102308.44
2022-09-22T09:55:27.757Z,102295.41
2022-09-22T09:58:12.397Z,102311.66
2022-09-22T10:00:59.850Z,102312.91
2022-09-22T10:03:33.606Z,102288.41
2022-09-22T10:06:07.930Z,102298.66
2022-09-22T10:08:44.805Z,102304.28
2022-09-22T10:11:15.006Z,102281.78
2022-09-22T10:13:43.658Z,102286.75
2022-09-22T10:16:22.734Z,102288.16
2022-09-22T10:18:52.121Z,102294.53
2022-09-22T10:21:22.362Z,102283.91
2022-09-22T10:23:51.071Z,102304.94
2022-09-22T10:26:26.605Z,102342.09
2022-09-22T10:29:12.510Z,102364.13
2022-09-22T10:31:41.767Z,102358.00
2022-09-22T10:34:27.994Z,102347.47
2022-09-22T10:36:55.364Z,102352.91
2022-09-22T10:39:32.251Z,102382.47
2022-09-22T10:42:03.066Z,102368.59
2022-09-22T10:44:40.989Z,102346.44
2022-09-22T10:47:27.531Z,102299.41
2022-09-22T10:50:12.924Z,102308.28
2022-09-22T10:52:55.372Z,102279.16
2022-09-22T10:55:28.318Z,102265.28
2022-09-22T10:58:04.228Z,102279.06
2022-09-22T11:00:41.922Z,102295.03
2022-09-22T11:03:27.290Z,102308.50
2022-09-22T11:06:30.096Z,102334.25
2022-09-22T11:09:49.580Z,102336.13
2022-09-22T11:12:31.646Z,102326.66
2022-09-22T11:15:23.346Z,102288.81
2022-09-22T11:18:10.705Z,102310.81
2022-09-22T11:20:40.106Z,102308.91
2022-09-22T11:23:34.788Z,102330.81
2022-09-22T11:26:09.511Z,102348.91
2022-09-22T11:28:57.245Z,102335.56
2022-09-22T11:31:48.547Z,102265.66
2022-09-22T11:34:30.399Z,102266.13
2022-09-22T11:37:25.635Z,102245.19
2022-09-22T11:40:17.448Z,102228.84
2022-09-22T11:43:05.929Z,102193.38
2022-09-22T11:46:08.980Z,102233.97
2022-09-22T11:49:06.245Z,102277.41
2022-09-22T11:51:53.217Z,102249.94
2022-09-22T11:54:33.675Z,102198.84
2022-09-22T11:57:09.015Z,102191.63
2022-09-22T11:59:42.287Z,102239.03
2022-09-22T12:02:19.220Z,102211.72
2022-09-22T12:04:57.504Z,102231.16
2022-09-22T12:07:37.457Z,102285.78
2022-09-22T12:10:13.056Z,102268.44
2022-09-22T12:12:43.869Z,102205.63
2022-09-22T12:15:24.809Z,102191.28
2022-09-22T12:18:05.444Z,102173.09
2022-09-22T12:20:50.447Z,102130.44
2022-09-22T12:23:39.314Z,102141.28
2022-09-22T12:26:09.783Z,102159.63
2022-09-22T12:28:46.568Z,102115.13
2022-09-22T12:31:16.042Z,102092.81
2022-09-22T12:33:50.327Z,102158.13
2022-09-22T12:36:20.224Z,102133.19
2022-09-22T12:38:47.786Z,102114.94
2022-09-22T12:41:19.548Z,102129.03
2022-09-22T12:43:47.931Z,102091.22
2022-09-22T12:46:28.863Z,102127.47
2022-09-22T12:48:55.830Z,102119.38
2022-09-22T12:51:25.611Z,102155.44
2022-09-22T12:54:12.397Z,102128.44
2022-09-22T12:56:47.574Z,102089.66
2022-09-22T12:59:36.745Z,102076.03
2022-09-22T13:02:27.007Z,102081.22
2022-09-22T13:04:56.710Z,102087.88
2022-09-22T13:07:41.302Z,102096.25
2022-09-22T13:10:23.312Z,102103.09
2022-09-22T13:13:31.838Z,102061.25
2022-09-22T13:16:01.832Z,102078.00
2022-09-22T13:18:28.625Z,102102.63
2022-09-22T13:20:56.621Z,102105.66
2022-09-22T13:23:24.779Z,102125.00
2022-09-22T13:25:51.835Z,102148.59
2022-09-22T13:28:23.334Z,102178.25
2022-09-22T13:31:09.671Z,102187.38
2022-09-22T13:33:36.651Z,102177.13
2022-09-22T13:36:07.050Z,102152.97
2022-09-22T13:38:37.891Z,102153.22
2022-09-22T13:41:10.960Z,102202.59
2022-09-22T13:43:42.432Z,102204.84
2022-09-22T13:46:21.940Z,102185.88
2022-09-22T13:48:51.401Z,102184.53
2022-09-22T13:51:18.288Z,102177.16
2022-09-22T13:53:51.574Z,102172.88
2022-09-22T13:56:22.116Z,102154.47
2022-09-22T13:58:51.546Z,102160.47
2022-09-22T14:01:22.640Z,102139.00
2022-09-22T14:04:21.063Z,102178.25
2022-09-22T14:06:49.601Z,102147.69
2022-09-22T14:09:17.057Z,102123.16
2022-09-22T14:11:44.254Z,102111.94
2022-09-22T14:14:25.743Z,102117.03
2022-09-22T14:16:57.090Z,102108.34
2022-09-22T14:19:34.328Z,102101.22
2022-09-22T14:22:17.789Z,102131.31
2022-09-22T14:24:49.577Z,102124.13
2022-09-22T14:27:25.128Z,102141.69
2022-09-22T14:29:54.162Z,102137.94
2022-09-22T14:32:49.897Z,102135.09
2022-09-22T14:35:28.752Z,102100.53
2022-09-22T14:38:03.296Z,102047.34
2022-09-22T14:40:35.265Z,102068.00
2022-09-22T14:43:11.222Z,102053.41
2022-09-22T14:45:56.593Z,102089.25
2022-09-22T14:48:34.536Z,102085.38
2022-09-22T14:51:06.232Z,102108.25
2022-09-22T14:53:35.552Z,102101.28
2022-09-22T14:56:16.579Z,102137.00
2022-09-22T14:58:54.623Z,102126.50
2022-09-22T15:01:49.673Z,102142.97
2022-09-22T15:04:25.033Z,102124.88
2022-09-22T15:06:56.355Z,102133.91
2022-09-22T15:09:30.856Z,102142.00
2022-09-22T15:12:03.657Z,102156.47
2022-09-22T15:14:34.568Z,102154.25
2022-09-22T15:17:20.935Z,102135.63
2022-09-22T15:19:51.784Z,102133.50
2022-09-22T15:22:19.311Z,102124.91
2022-09-22T15:24:47.083Z,102128.63
2022-09-22T15:27:17.973Z,102087.00
2022-09-22T15:29:45.656Z,102074.66
2022-09-22T15:32:13.082Z,102099.00
2022-09-22T15:34:42.771Z,102109.00
2022-09-22T15:37:22.390Z,102120.47
2022-09-22T15:39:49.472Z,102141.28
2022-09-22T15:42:16.950Z,102152.53
2022-09-22T15:44:44.747Z,102160.34
2022-09-22T15:47:17.516Z,102187.69
2022-09-22T15:49:49.278Z,102191.31
2022-09-22T15:52:17.509Z,102196.56
2022-09-22T15:54:48.306Z,102171.81
2022-09-22T15:57:17.537Z,102185.59
2022-09-22T15:59:46.402Z,102182.88
2022-09-22T16:02:14.829Z,102201.50
2022-09-22T16:04:42.802Z,102213.22
2022-09-22T16:07:12.602Z,102212.00
2022-09-22T16:09:40.311Z,102211.47
2022-09-22T16:12:21.539Z,102205.13
2022-09-22T16:14:50.977Z,102206.44
2022-09-22T16:17:19.123Z,102205.91
2022-09-22T16:19:47.079Z,102209.75
2022-09-22T16:22:14.781Z,102206.28
2022-09-22T16:24:45.029Z,102205.59
2022-09-22T16:27:13.158Z,102204.41
2022-09-22T16:29:42.874Z,102197.81
2022-09-22T16:32:11.644Z,102202.13
2022-09-22T16:34:38.421Z,102208.72
2022-09-22T16:37:06.091Z,102201.59
2022-09-22T16:39:33.214Z,102202.97
2022-09-22T16:42:01.205Z,102203.09
2022-09-22T16:44:29.353Z,102205.50
2022-09-22T16:46:57.412Z,102203.50
2022-09-22T16:49:25.790Z,102203.06
2022-09-22T16:51:54.624Z,102202.06
2022-09-22T16:54:22.404Z,102209.75
2022-09-22T16:56:51.156Z,102218.81
2022-09-22T16:59:21.490Z,102205.19
2022-09-22T17:01:50.507Z,102211.28
2022-09-22T17:04:19.957Z,102207.41
2022-09-22T17:06:54.501Z,102206.47
2022-09-22T17:09:22.622Z,102203.66
2022-09-22T17:11:50.746Z,102212.38
2022-09-22T17:14:22.512Z,102206.91
2022-09-22T17:16:52.177Z,102202.25
2022-09-22T17:19:29.105Z,102191.22
2022-09-22T17:21:58.622Z,102196.38
2022-09-22T17:24:27.135Z,102185.34
2022-09-22T17:26:58.973Z,102190.72
2022-09-22T17:29:28.447Z,102184.28
2022-09-22T17:32:02.337Z,102184.72
2022-09-22T17:34:34.029Z,102183.16
2022-09-22T17:37:04.545Z,102171.13
2022-09-22T17:39:32.832Z,102170.97
2022-09-22T17:42:06.459Z,102172.81
2022-09-22T17:44:35.923Z,102174.94
2022-09-22T17:47:21.509Z,102169.28
2022-09-22T17:50:07.633Z,102171.84
2022-09-22T17:52:40.071Z,102172.13
2022-09-22T17:55:16.181Z,102169.16
2022-09-22T17:57:45.640Z,102173.34
2022-09-22T18:00:13.221Z,102168.28
2022-09-22T18:02:41.085Z,102167.38
2022-09-22T18:08:07.508Z,102156.31
2022-09-22T18:10:35.470Z,102146.56
2022-09-22T18:13:04.363Z,102153.94
2022-09-22T18:15:32.803Z,102143.47
2022-09-22T18:18:00.546Z,102142.69
2022-09-22T18:20:27.925Z,102141.81
2022-09-22T18:22:56.425Z,102132.88
2022-09-22T18:25:24.545Z,102129.25
2022-09-22T18:27:54.354Z,102132.44
2022-09-22T18:30:23.372Z,102129.50
2022-09-22T18:32:51.292Z,102127.50
2022-09-22T18:35:19.332Z,102136.28
2022-09-22T18:37:47.476Z,102123.28
2022-09-22T18:40:17.229Z,102114.66
2022-09-22T18:42:45.061Z,102104.91
2022-09-22T18:45:14.547Z,102106.13
2022-09-22T18:47:44.256Z,102101.66
2022-09-22T18:50:13.045Z,102099.84
2022-09-22T18:52:43.292Z,102094.53
2022-09-22T18:55:12.266Z,102096.22
2022-09-22T18:57:39.701Z,102096.91
2022-09-22T19:00:07.874Z,102095.13
2022-09-22T19:02:35.180Z,102092.88
2022-09-22T19:05:03.416Z,102090.59
2022-09-22T19:07:42.092Z,102089.50
2022-09-22T19:10:22.266Z,102085.97
2022-09-22T19:12:51.095Z,102079.00
2022-09-22T19:15:23.223Z,102076.56
2022-09-22T19:17:51.747Z,102072.00
2022-09-22T19:20:26.241Z,102071.75
2022-09-22T19:22:54.824Z,102066.56
2022-09-22T19:25:23.772Z,102066.69
2022-09-22T19:27:53.117Z,102061.50
2022-09-22T19:30:23.372Z,102059.03
2022-09-22T19:32:56.420Z,102057.09
2022-09-22T19:35:23.638Z,102048.13
2022-09-22T19:37:53.805Z,102045.75
2022-09-22T19:40:27.343Z,102040.72
2022-09-22T19:42:59.984Z,102037.41
2022-09-22T19:45:26.827Z,102046.94
2022-09-22T19:47:58.539Z,102038.06
2022-09-22T19:50:26.536Z,102034.66
2022-09-22T19:52:53.816Z,102019.16
2022-09-22T19:55:21.497Z,102024.19
2022-09-22T19:57:49.137Z,102018.03
2022-09-22T20:00:26.614Z,102009.06
2022-09-22T20:02:58.935Z,102005.72
2022-09-22T20:05:29.655Z,102005.91
2022-09-22T20:07:58.263Z,101994.97
2022-09-22T20:10:25.754Z,101989.25
2022-09-22T20:12:52.786Z,101984.63
2022-09-22T20:15:20.131Z,101985.22
2022-09-22T20:17:47.850Z,101976.44
2022-09-22T20:20:26.078Z,101980.38
2022-09-22T20:23:01.205Z,101982.44
2022-09-22T20:25:33.625Z,101969.13
2022-09-22T20:28:02.644Z,101962.13
2022-09-22T20:30:36.432Z,101962.66
2022-09-22T20:33:04.809Z,101957.31
2022-09-22T20:35:34.054Z,101951.00
2022-09-22T20:38:04.429Z,101937.00
2022-09-22T20:40:34.247Z,101943.66
2022-09-22T20:43:03.445Z,101932.63
2022-09-22T20:45:32.900Z,101936.88
2022-09-22T20:48:00.948Z,101939.38
2022-09-22T20:50:28.802Z,101937.94
2022-09-22T20:52:56.518Z,101930.94
2022-09-22T20:55:23.424Z,101927.16
2022-09-22T20:57:52.803Z,101924.69
2022-09-22T21:00:20.612Z,101922.44
2022-09-22T21:02:48.870Z,101914.41
2022-09-22T21:05:17.091Z,101901.78
2022-09-22T21:07:45.169Z,101899.28
2022-09-22T21:10:31.175Z,101896.59
2022-09-22T21:12:58.590Z,101887.66
2022-09-22T21:15:25.378Z,101891.53
2022-09-22T21:17:53.180Z,101880.69
2022-09-22T21:20:22.275Z,101881.72
2022-09-22T21:22:51.289Z,101879.25
2022-09-22T21:25:18.313Z,101874.06
2022-09-22T21:27:46.315Z,101879.72
2022-09-22T21:30:14.651Z,101869.03
2022-09-22T21:32:43.810Z,101869.91
2022-09-22T21:35:16.846Z,101860.13
2022-09-22T21:37:45.149Z,101870.13
2022-09-22T21:40:13.495Z,101861.28
2022-09-22T21:42:41.745Z,101865.03
2022-09-22T21:45:09.825Z,101862.31
2022-09-22T21:47:37.820Z,101863.59
2022-09-22T21:50:06.182Z,101868.28
2022-09-22T21:52:34.141Z,101865.16
2022-09-22T21:55:01.094Z,101865.00
2022-09-22T21:57:29.568Z,101856.81
2022-09-22T21:59:57.809Z,101858.63
2022-09-22T22:02:25.784Z,101848.75
2022-09-22T22:04:56.008Z,101854.09
2022-09-22T22:07:24.599Z,101846.13
2022-09-22T22:09:51.364Z,101849.00
2022-09-22T22:12:18.047Z,101846.34
2022-09-22T22:14:47.441Z,101841.88
2022-09-22T22:17:14.253Z,101836.31
2022-09-22T22:19:42.152Z,101829.38
2022-09-22T22:22:10.158Z,101835.44
2022-09-22T22:24:41.237Z,101824.91
2022-09-22T22:27:10.416Z,101825.13
2022-09-22T22:29:41.108Z,101823.31
2022-09-22T22:32:11.372Z,101822.34
2022-09-22T22:34:41.008Z,101825.22
2022-09-22T22:37:10.121Z,101821.56
2022-09-22T22:39:37.490Z,101810.03
2022-09-22T22:42:05.406Z,101802.81
2022-09-22T22:44:33.403Z,101798.25
2022-09-22T22:47:01.385Z,101791.16
2022-09-22T22:49:28.898Z,101792.03
2022-09-22T22:51:56.679Z,101789.63
2022-09-22T22:54:23.640Z,101787.88
2022-09-22T22:56:51.773Z,101790.75
2022-09-22T22:59:19.473Z,101783.34
2022-09-22T23:01:46.298Z,101767.94
2022-09-22T23:04:13.734Z,101774.25
2022-09-22T23:06:45.686Z,101763.81
2022-09-22T23:09:15.615Z,101758.53
2022-09-22T23:11:44.517Z,101754.03
2022-09-22T23:14:13.263Z,101754.03
2022-09-22T23:16:46.641Z,101745.47
2022-09-22T23:19:17.507Z,101748.19
2022-09-22T23:21:46.042Z,101749.28
2022-09-22T23:24:16.218Z,101748.59
2022-09-22T23:26:45.357Z,101746.09
2022-09-22T23:29:13.917Z,101748.78
2022-09-22T23:31:41.331Z,101748.63
2022-09-22T23:34:08.369Z,101744.03
2022-09-22T23:36:35.245Z,101740.44
2022-09-22T23:39:05.881Z,101735.25
2022-09-22T23:41:36.110Z,101737.16
2022-09-22T23:44:06.822Z,101717.25
2022-09-22T23:46:34.726Z,101718.22
2022-09-22T23:49:02.679Z,101712.00
2022-09-22T23:51:30.859Z,101706.56
2022-09-22T23:53:58.781Z,101708.31
2022-09-22T23:56:25.741Z,101695.81
2022-09-22T23:58:53.697Z,101691.28
